Time;durP1;ratioP1;P1;durP2;ratioP2;P2;SDS_P1;SDS_P2;PMS_P1;PMS_P2;Temp;Humidity;BMP_temperature;BMP_pressure;BME280_temperature;BME280_humidity;BME280_pressure;Samples;Min_cycle;Max_cycle;Signal;HPM_P1;HPM_P2
2024/02/11 00:02:12;;;;;;;14.63;3.60;;;;;;;13.53;98.44;99865.59;4970446;28;20041;-69
2024/02/11 00:04:38;;;;;;;16.65;4.35;;;;;;;13.49;98.49;99864.69;4970068;28;20031;-69
2024/02/11 00:07:24;;;;;;;16.60;4.20;;;;;;;13.38;98.81;99861.94;4969301;28;20105;-69
2024/02/11 00:09:49;;;;;;;12.48;4.13;;;;;;;13.64;98.49;99889.13;4946567;29;20110;-69
2024/02/11 00:12:16;;;;;;;13.57;3.85;;;;;;;13.71;96.82;99867.59;4940612;29;20051;-69
2024/02/11 00:14:42;;;;;;;8.60;3.63;;;;;;;13.66;96.85;99853.69;4945804;29;20047;-69
2024/02/11 00:17:07;;;;;;;11.10;3.60;;;;;;;13.31;97.48;99791.75;4948122;29;20038;-70
2024/02/11 00:19:34;;;;;;;9.98;3.65;;;;;;;13.65;98.14;99849.34;4940350;29;20048;-68
2024/02/11 00:22:01;;;;;;;12.55;3.38;;;;;;;13.55;98.79;99837.97;4933831;29;20040;-71
2024/02/11 00:24:29;;;;;;;15.93;3.83;;;;;;;13.53;98.88;99844.84;4939386;29;20126;-69
2024/02/11 00:26:56;;;;;;;12.27;4.03;;;;;;;13.52;99.01;99827.53;4948729;29;20063;-69
2024/02/11 00:29:21;;;;;;;15.10;3.83;;;;;;;13.49;99.28;99818.00;4944751;29;20626;-69
2024/02/11 00:31:47;;;;;;;13.13;3.75;;;;;;;13.50;99.76;99824.06;4943360;29;20048;-69
2024/02/11 00:34:14;;;;;;;14.35;4.47;;;;;;;13.48;100.00;99831.81;4944048;29;20047;-72
2024/02/11 00:36:40;;;;;;;12.77;4.00;;;;;;;13.54;99.45;99823.25;4946857;29;20039;-69
2024/02/11 00:39:06;;;;;;;12.73;3.58;;;;;;;13.69;99.15;99851.13;4950661;29;20043;-70
2024/02/11 00:41:31;;;;;;;12.57;3.53;;;;;;;13.80;98.18;99857.34;4981830;28;20049;-70
2024/02/11 00:43:58;;;;;;;12.10;3.05;;;;;;;13.85;97.84;99858.28;4990714;28;20132;-70
2024/02/11 00:46:23;;;;;;;15.05;4.63;;;;;;;13.85;97.03;99863.47;4991294;28;20038;-70
2024/02/11 00:48:49;;;;;;;10.18;3.40;;;;;;;13.85;97.45;99865.19;4990663;28;20044;-68
2024/02/11 00:51:14;;;;;;;11.52;3.42;;;;;;;13.73;97.75;99869.38;4990836;28;20066;-69
2024/02/11 00:53:40;;;;;;;12.15;4.03;;;;;;;13.81;97.33;99894.56;4990783;28;20030;-68
2024/02/11 00:56:08;;;;;;;15.02;3.83;;;;;;;13.87;96.89;99897.25;4991031;28;20101;-69
2024/02/11 00:58:33;;;;;;;16.15;4.22;;;;;;;13.64;96.67;99848.47;4990482;28;20036;-69
2024/02/11 01:01:05;;;;;;;10.48;3.80;;;;;;;13.95;96.20;99890.41;4989489;28;20035;-70
2024/02/11 01:03:31;;;;;;;16.30;4.55;;;;;;;13.96;96.02;99875.75;4991160;28;20046;-69
2024/02/11 01:05:56;;;;;;;12.77;3.78;;;;;;;13.96;95.90;99886.97;4990082;28;20054;-70
2024/02/11 01:08:41;;;;;;;13.35;4.15;;;;;;;13.93;95.90;99878.28;4985549;28;20081;-71
2024/02/11 01:11:08;;;;;;;14.63;4.25;;;;;;;13.84;96.22;99861.72;4959226;28;20039;-70
2024/02/11 01:13:33;;;;;;;13.50;4.20;;;;;;;13.82;96.50;99855.66;4964317;28;20043;-68
2024/02/11 01:15:59;;;;;;;11.40;3.80;;;;;;;13.58;97.14;99822.44;4969268;28;20039;-69
2024/02/11 01:18:25;;;;;;;14.45;3.65;;;;;;;13.68;97.64;99849.38;4970551;28;20031;-69
2024/02/11 01:20:53;;;;;;;13.40;3.80;;;;;;;13.23;97.75;99791.66;4962169;28;20055;-69
2024/02/11 01:23:18;;;;;;;14.93;4.28;;;;;;;13.60;98.08;99864.84;4954845;28;20043;-70
2024/02/11 01:25:44;;;;;;;10.75;3.65;;;;;;;13.61;98.08;99858.81;4962876;28;20462;-68
2024/02/11 01:28:09;;;;;;;14.95;4.10;;;;;;;13.17;98.37;99799.34;4967899;28;20035;-70
2024/02/11 01:30:35;;;;;;;12.52;3.90;;;;;;;13.54;98.69;99868.19;4961317;28;20035;-69
2024/02/11 01:33:01;;;;;;;11.77;4.03;;;;;;;13.52;99.10;99856.97;4962048;28;20027;-67
2024/02/11 01:35:28;;;;;;;14.68;4.22;;;;;;;13.50;99.53;99860.38;4962067;28;20500;-69
2024/02/11 01:37:55;;;;;;;14.40;4.05;;;;;;;13.45;100.00;99856.84;4959297;28;20048;-70
2024/02/11 01:40:21;;;;;;;10.88;3.65;;;;;;;13.40;100.00;99859.38;4958616;28;20046;-70
2024/02/11 01:42:48;;;;;;;11.05;4.32;;;;;;;13.34;100.00;99854.03;4966164;28;20051;-68
2024/02/11 01:45:14;;;;;;;11.52;4.15;;;;;;;13.42;100.00;99862.81;4972486;28;20027;-68
2024/02/11 01:47:44;;;;;;;14.70;3.97;;;;;;;12.31;100.00;99670.19;4972938;28;20034;-70
2024/02/11 01:50:15;;;;;;;15.13;4.10;;;;;;;13.52;100.00;99863.84;4918758;29;20536;-70
2024/02/11 01:52:41;;;;;;;13.38;4.00;;;;;;;13.52;100.00;99844.00;4930351;29;20167;-69
2024/02/11 01:55:17;;;;;;;13.65;4.22;;;;;;;13.51;100.00;99828.41;4912992;29;20078;-70
2024/02/11 01:57:42;;;;;;;12.90;4.32;;;;;;;13.53;100.00;99837.97;4923261;29;20115;-69
2024/02/11 02:00:10;;;;;;;10.82;3.70;;;;;;;13.44;100.00;99843.00;4929056;29;20557;-69
2024/02/11 02:02:36;;;;;;;12.70;3.65;;;;;;;12.94;100.00;99782.56;4963276;28;20156;-72
2024/02/11 02:05:02;;;;;;;17.98;3.97;;;;;;;13.36;100.00;99852.34;4932060;29;20551;-68
2024/02/11 02:07:28;;;;;;;11.90;3.80;;;;;;;13.18;100.00;99832.19;4931003;29;20139;-69
2024/02/11 02:09:54;;;;;;;12.55;3.70;;;;;;;13.26;100.00;99840.97;4928277;29;20672;-70
2024/02/11 02:12:21;;;;;;;12.63;4.03;;;;;;;13.20;100.00;99849.50;4929369;29;20044;-70
2024/02/11 02:14:48;;;;;;;8.43;2.92;;;;;;;13.20;100.00;99830.50;4929542;29;20032;-69
2024/02/11 02:17:14;;;;;;;9.48;3.40;;;;;;;13.15;100.00;99807.09;4931618;29;20120;-69
2024/02/11 02:19:40;;;;;;;13.98;3.72;;;;;;;12.86;100.00;99732.38;4934092;29;20116;-69
2024/02/11 02:22:06;;;;;;;12.15;3.83;;;;;;;13.40;100.00;99812.69;4985460;28;20046;-72
2024/02/11 02:24:32;;;;;;;8.60;3.45;;;;;;;13.39;100.00;99792.78;4992071;28;20104;-69
2024/02/11 02:26:57;;;;;;;8.75;3.05;;;;;;;13.42;100.00;99787.63;4977553;28;20046;-69
2024/02/11 02:29:23;;;;;;;11.50;3.45;;;;;;;13.53;100.00;99795.56;4991704;28;20461;-68
2024/02/11 02:31:48;;;;;;;12.25;3.67;;;;;;;13.67;100.00;99804.44;4991850;28;20026;-69
2024/02/11 02:34:14;;;;;;;10.82;3.47;;;;;;;13.71;99.79;99814.00;4991785;28;20030;-68
2024/02/11 02:36:41;;;;;;;9.52;2.90;;;;;;;13.75;99.51;99801.94;4978644;28;20589;-69
2024/02/11 02:39:09;;;;;;;11.55;4.05;;;;;;;13.86;98.86;99802.09;4991984;28;20030;-68
2024/02/11 02:41:35;;;;;;;10.53;3.67;;;;;;;13.73;98.68;99795.84;4991257;28;20038;-71
2024/02/11 02:44:00;;;;;;;11.88;4.25;;;;;;;13.89;97.82;99803.00;4991198;28;20486;-68
2024/02/11 02:46:28;;;;;;;10.02;3.25;;;;;;;13.90;97.24;99788.28;4991474;28;20034;-69
2024/02/11 02:48:56;;;;;;;10.07;3.63;;;;;;;14.00;97.04;99815.22;4991809;28;20034;-71
2024/02/11 02:51:22;;;;;;;13.82;3.80;;;;;;;13.60;96.83;99750.72;4991038;28;20046;-69
2024/02/11 02:53:49;;;;;;;12.18;3.92;;;;;;;14.01;96.91;99828.22;4991186;28;20031;-74
2024/02/11 02:56:17;;;;;;;16.27;3.85;;;;;;;14.04;96.35;99832.56;4991118;28;20422;-70
2024/02/11 02:58:43;;;;;;;12.57;3.78;;;;;;;13.62;96.54;99787.94;4991852;28;20034;-70
2024/02/11 03:01:08;;;;;;;9.95;3.78;;;;;;;13.99;96.69;99855.84;4991134;28;20750;-70
2024/02/11 03:03:35;;;;;;;8.35;3.22;;;;;;;13.74;96.84;99819.25;4991133;28;20030;-69
2024/02/11 03:06:01;;;;;;;10.02;3.38;;;;;;;13.94;96.92;99854.06;4990685;28;20497;-69
2024/02/11 03:08:26;;;;;;;8.07;3.25;;;;;;;13.85;97.43;99842.72;4991109;28;20034;-71
2024/02/11 03:10:52;;;;;;;15.45;4.07;;;;;;;13.88;97.85;99847.06;4990778;28;20034;-69
2024/02/11 03:13:17;;;;;;;11.43;3.92;;;;;;;13.85;98.42;99837.53;4990687;28;20036;-70
2024/02/11 03:15:43;;;;;;;12.18;3.95;;;;;;;13.20;98.65;99721.66;4991170;28;20100;-68
2024/02/11 03:18:09;;;;;;;13.65;3.53;;;;;;;13.80;99.50;99822.75;4990886;28;20046;-68
2024/02/11 03:20:35;;;;;;;11.20;4.00;;;;;;;13.51;99.59;99774.81;4990753;28;20062;-69
2024/02/11 03:23:01;;;;;;;13.75;4.25;;;;;;;13.80;99.11;99813.25;4991128;28;20060;-67
2024/02/11 03:25:26;;;;;;;9.05;3.40;;;;;;;13.90;99.07;99827.22;4990912;28;20026;-69
2024/02/11 03:27:54;;;;;;;12.45;3.33;;;;;;;13.91;98.70;99819.44;4990985;28;20042;-68
2024/02/11 03:30:21;;;;;;;15.88;4.63;;;;;;;13.91;98.40;99832.41;4989318;28;20034;-70
2024/02/11 03:32:51;;;;;;;13.32;3.33;;;;;;;13.45;98.30;99750.53;4990552;28;20402;-69
2024/02/11 03:35:18;;;;;;;9.65;2.88;;;;;;;13.59;98.27;99780.09;4990778;28;20049;-68
2024/02/11 03:37:43;;;;;;;12.57;4.25;;;;;;;13.67;98.14;99796.66;4990919;28;20034;-67
2024/02/11 03:40:12;;;;;;;11.02;3.58;;;;;;;13.61;98.58;99775.81;4990701;28;20057;-68
2024/02/11 03:42:38;;;;;;;15.25;3.15;;;;;;;13.90;98.72;99837.59;4991607;28;20030;-69
2024/02/11 03:45:08;;;;;;;9.43;3.58;;;;;;;13.90;98.80;99850.56;4991015;28;20072;-72
2024/02/11 03:47:33;;;;;;;14.52;4.28;;;;;;;13.88;98.75;99857.44;4990443;28;20486;-69
2024/02/11 03:49:59;;;;;;;10.27;2.75;;;;;;;13.43;98.87;99773.81;4990558;28;20643;-69
2024/02/11 03:52:24;;;;;;;11.45;3.65;;;;;;;13.87;99.13;99845.34;4990590;28;20022;-71
2024/02/11 03:54:50;;;;;;;12.38;3.40;;;;;;;13.40;99.03;99753.91;4990343;28;20121;-68
2024/02/11 03:57:15;;;;;;;12.68;3.47;;;;;;;13.87;99.03;99832.38;4990483;28;20466;-68
2024/02/11 03:59:45;;;;;;;15.30;4.03;;;;;;;13.89;98.79;99825.47;4989658;28;20121;-69
2024/02/11 04:02:11;;;;;;;9.32;3.65;;;;;;;13.85;98.88;99821.09;4990574;28;20045;-69
2024/02/11 04:04:38;;;;;;;9.13;2.95;;;;;;;13.82;98.99;99785.59;4989938;28;20129;-68
2024/02/11 04:07:04;;;;;;;9.52;3.13;;;;;;;13.76;99.65;99795.91;4990409;28;20030;-73
2024/02/11 04:09:29;;;;;;;13.32;3.17;;;;;;;13.73;99.59;99781.16;4991145;28;20453;-69
2024/02/11 04:11:58;;;;;;;10.10;2.65;;;;;;;13.86;99.67;99802.94;4990538;28;20037;-69
2024/02/11 04:14:24;;;;;;;12.43;3.33;;;;;;;13.84;99.88;99799.44;4990207;28;20038;-69
2024/02/11 04:16:55;;;;;;;10.73;3.15;;;;;;;13.84;99.68;99806.38;4990178;28;20038;-68
2024/02/11 04:19:21;;;;;;;13.18;3.35;;;;;;;13.82;99.96;99810.66;4990118;28;20041;-69
2024/02/11 04:21:48;;;;;;;11.13;3.70;;;;;;;13.85;99.52;99800.34;4990245;28;20113;-67
2024/02/11 04:24:15;;;;;;;12.95;3.47;;;;;;;13.86;99.58;99800.34;4990864;28;20033;-68
2024/02/11 04:26:44;;;;;;;7.80;3.70;;;;;;;13.88;99.63;99797.75;4990354;28;20125;-68
2024/02/11 04:29:12;;;;;;;14.27;3.60;;;;;;;13.03;99.60;99660.06;4990403;28;20510;-70
2024/02/11 04:31:41;;;;;;;15.05;3.92;;;;;;;13.89;99.43;99795.22;4990186;28;20093;-69
2024/02/11 04:34:08;;;;;;;10.35;3.40;;;;;;;13.95;98.87;99794.41;4980617;28;20046;-74
2024/02/11 04:36:36;;;;;;;13.75;4.03;;;;;;;13.95;98.63;99790.94;4982941;28;20030;-69
2024/02/11 04:39:07;;;;;;;13.43;4.13;;;;;;;13.99;97.86;99793.56;4987807;28;20030;-69
2024/02/11 04:41:36;;;;;;;13.57;3.58;;;;;;;13.97;97.91;99766.75;4988338;28;20066;-70
2024/02/11 04:44:03;;;;;;;12.68;3.33;;;;;;;13.57;97.47;99698.81;4989676;28;20038;-69
2024/02/11 04:46:29;;;;;;;13.07;3.80;;;;;;;13.98;97.51;99765.91;5005264;28;20429;-67
2024/02/11 04:48:56;;;;;;;10.73;3.70;;;;;;;13.56;97.55;99695.34;4990077;28;20065;-70
2024/02/11 04:51:22;;;;;;;9.70;2.90;;;;;;;13.59;97.43;99694.53;4983769;28;20525;-69
2024/02/11 04:53:48;;;;;;;11.98;3.78;;;;;;;14.04;97.29;99781.56;4990221;28;20022;-68
2024/02/11 04:56:17;;;;;;;13.30;3.80;;;;;;;14.02;97.22;99775.47;4989985;28;20383;-69
2024/02/11 04:58:44;;;;;;;8.52;3.42;;;;;;;14.08;96.64;99782.44;5012240;28;20022;-68
2024/02/11 05:01:09;;;;;;;14.40;3.70;;;;;;;14.06;96.64;99789.34;4985100;28;20065;-74
2024/02/11 05:03:35;;;;;;;12.18;3.45;;;;;;;14.01;96.56;99785.84;4989975;28;20053;-69
2024/02/11 05:06:00;;;;;;;10.27;3.47;;;;;;;13.65;96.16;99717.09;4989735;28;20050;-69
2024/02/11 05:08:27;;;;;;;12.73;3.90;;;;;;;13.95;95.98;99781.44;4989955;28;20544;-69
2024/02/11 05:10:53;;;;;;;13.18;3.85;;;;;;;13.99;95.63;99772.81;4992582;28;20033;-70
2024/02/11 05:13:20;;;;;;;13.20;3.80;;;;;;;14.01;95.19;99773.72;4993441;28;20414;-69
2024/02/11 05:15:49;;;;;;;14.75;3.53;;;;;;;13.89;95.63;99770.97;4993346;28;20034;-68
2024/02/11 05:18:15;;;;;;;11.55;3.28;;;;;;;13.92;95.92;99771.03;4984589;28;20031;-73
2024/02/11 05:20:41;;;;;;;8.68;3.40;;;;;;;13.89;95.89;99774.47;4993077;28;20058;-69
2024/02/11 05:23:11;;;;;;;8.23;2.50;;;;;;;13.85;96.41;99772.66;4992775;28;20489;-68
2024/02/11 05:25:40;;;;;;;7.95;2.83;;;;;;;13.48;96.97;99711.66;4992807;28;20037;-67
2024/02/11 05:28:09;;;;;;;;;;;;;;;13.93;97.02;99796.09;4993162;28;20553;-71
2024/02/11 05:30:37;;;;;;;10.30;3.17;;;;;;;13.81;97.74;99780.41;4988837;28;19921;-69
2024/02/11 05:33:04;;;;;;;13.05;3.00;;;;;;;13.74;98.19;99780.31;4993225;28;20023;-68
2024/02/11 05:35:34;;;;;;;10.05;3.40;;;;;;;13.86;98.52;99789.97;4992489;28;20406;-69
2024/02/11 05:38:03;;;;;;;12.63;3.40;;;;;;;13.90;98.36;99788.28;4993035;28;20383;-67
2024/02/11 05:40:36;;;;;;;11.48;3.15;;;;;;;13.80;98.51;99770.88;4985603;28;20442;-69
2024/02/11 05:43:05;;;;;;;10.43;2.80;;;;;;;13.90;98.40;99788.28;4980749;28;20084;-70
2024/02/11 05:45:32;;;;;;;9.88;3.55;;;;;;;13.97;98.07;99790.13;4990311;28;20030;-69
2024/02/11 05:47:58;;;;;;;7.95;3.47;;;;;;;14.03;97.99;99794.50;4992932;28;20049;-69
2024/02/11 05:50:27;;;;;;;15.40;4.30;;;;;;;13.50;98.15;99710.84;4992431;28;20030;-68
2024/02/11 05:52:54;;;;;;;13.20;3.97;;;;;;;13.95;98.24;99784.03;4992867;28;20037;-68
2024/02/11 05:55:20;;;;;;;12.18;3.67;;;;;;;13.97;97.30;99797.91;4997932;28;20049;-68
2024/02/11 05:57:48;;;;;;;10.25;3.70;;;;;;;13.91;97.66;99780.50;4990994;28;20512;-68
2024/02/11 06:00:18;;;;;;;13.45;3.78;;;;;;;14.14;97.55;99818.84;4992577;28;20034;-68
2024/02/11 06:02:48;;;;;;;;;;;;;;;14.17;97.15;99826.69;4993178;28;20042;-70
2024/02/11 06:05:14;;;;;;;18.92;4.40;;;;;;;14.21;96.89;99825.00;4989368;28;19920;-69
2024/02/11 06:07:49;;;;;;;11.40;3.63;;;;;;;14.22;96.88;99827.59;4992351;28;20042;-69
2024/02/11 06:10:16;;;;;;;12.25;3.20;;;;;;;14.22;96.92;99835.38;4992341;28;20065;-68
2024/02/11 06:12:42;;;;;;;16.58;4.85;;;;;;;13.82;96.77;99758.78;4993099;28;20112;-69
2024/02/11 06:15:10;;;;;;;14.40;4.25;;;;;;;14.21;96.78;99818.06;4995864;28;20053;-69
2024/02/11 06:17:43;;;;;;;10.60;4.10;;;;;;;14.22;96.34;99817.22;4988877;28;20053;-69
2024/02/11 06:20:13;;;;;;;17.42;4.43;;;;;;;14.24;96.68;99828.50;4992086;28;20418;-69
2024/02/11 06:22:44;;;;;;;11.60;3.97;;;;;;;14.28;96.04;99826.81;4991315;28;20022;-69
2024/02/11 06:25:13;;;;;;;11.40;3.50;;;;;;;14.30;95.14;99832.88;4979330;28;20039;-67
2024/02/11 06:27:40;;;;;;;16.60;4.03;;;;;;;14.30;94.93;99840.66;4991891;28;20026;-69
2024/02/11 06:30:13;;;;;;;14.93;4.80;;;;;;;14.31;94.81;99829.44;4991945;28;20042;-69
2024/02/11 06:32:46;;;;;;;19.27;4.55;;;;;;;14.02;94.67;99774.59;4992225;28;20173;-69
2024/02/11 06:35:12;;;;;;;12.50;4.03;;;;;;;14.27;94.55;99813.78;4991931;28;20120;-68
2024/02/11 06:37:42;;;;;;;12.50;3.75;;;;;;;14.30;93.91;99832.03;4992178;28;20026;-69
2024/02/11 06:40:13;;;;;;;15.73;3.28;;;;;;;14.32;93.71;99813.00;5011997;28;20042;-69
2024/02/11 06:42:39;;;;;;;15.43;4.28;;;;;;;14.28;93.21;99816.44;4986834;28;20038;-68
2024/02/11 06:45:08;;;;;;;10.90;3.58;;;;;;;14.33;93.29;99835.53;4992197;28;20018;-74
2024/02/11 06:47:37;;;;;;;11.43;3.30;;;;;;;14.35;92.74;99818.22;4980402;28;20193;-68
2024/02/11 06:50:08;;;;;;;11.70;3.13;;;;;;;14.35;92.50;99826.00;4998257;28;20536;-70
2024/02/11 06:52:34;;;;;;;14.90;3.33;;;;;;;14.35;92.54;99830.34;4991482;28;20042;-69
2024/02/11 06:55:01;;;;;;;15.85;3.72;;;;;;;14.34;92.40;99829.47;4987162;28;20037;-71
2024/02/11 06:57:28;;;;;;;15.15;3.70;;;;;;;14.38;91.98;99833.84;4992193;28;20084;-73
2024/02/11 06:59:56;;;;;;;14.63;3.72;;;;;;;14.38;92.17;99828.66;4991213;28;20022;-67
2024/02/11 07:02:22;;;;;;;14.80;3.60;;;;;;;14.39;91.49;99830.41;4991438;28;20037;-68
2024/02/11 07:04:47;;;;;;;18.35;4.45;;;;;;;14.48;90.61;99826.16;4991153;28;20042;-68
2024/02/11 07:07:13;;;;;;;13.50;3.30;;;;;;;14.49;89.93;99831.38;4991304;28;20027;-69
2024/02/11 07:09:41;;;;;;;10.70;3.10;;;;;;;14.54;89.52;99823.59;4991403;28;20050;-68
2024/02/11 07:12:06;;;;;;;16.42;3.65;;;;;;;14.54;89.85;99842.69;4991275;28;20022;-71
2024/02/11 07:14:32;;;;;;;11.80;3.47;;;;;;;14.57;89.46;99839.25;4978748;28;20038;-69
2024/02/11 07:17:00;;;;;;;18.38;3.90;;;;;;;14.55;89.80;99825.34;4991197;28;20032;-69
2024/02/11 07:19:26;;;;;;;12.35;3.10;;;;;;;14.56;89.91;99827.97;4991266;28;20050;-69
2024/02/11 07:21:52;;;;;;;14.48;3.55;;;;;;;14.52;90.26;99818.41;4991095;28;20030;-69
2024/02/11 07:24:37;;;;;;;9.88;4.00;;;;;;;14.53;91.41;99821.91;4987221;28;20042;-69
2024/02/11 07:27:06;;;;;;;10.82;3.42;;;;;;;13.80;92.05;99709.47;4976429;28;20046;-68
2024/02/11 07:29:33;;;;;;;10.87;3.20;;;;;;;14.51;92.86;99831.38;4977090;28;20047;-69
2024/02/11 07:31:59;;;;;;;17.85;4.00;;;;;;;14.40;93.17;99806.19;4948970;28;20042;-68
2024/02/11 07:34:26;;;;;;;12.38;3.75;;;;;;;14.43;93.43;99831.31;4936308;28;20489;-69
2024/02/11 07:36:52;;;;;;;14.77;4.20;;;;;;;14.34;93.52;99816.50;4981759;28;20073;-69
2024/02/11 07:39:18;;;;;;;14.15;4.53;;;;;;;13.95;93.22;99750.28;4978740;28;20066;-69
2024/02/11 07:41:44;;;;;;;12.23;3.67;;;;;;;14.48;93.37;99833.94;4976300;28;20038;-75
2024/02/11 07:44:12;;;;;;;10.77;3.58;;;;;;;14.45;93.86;99839.97;4981450;28;20050;-68
2024/02/11 07:46:37;;;;;;;10.80;3.67;;;;;;;14.46;94.61;99835.66;4984158;28;20027;-68
2024/02/11 07:49:04;;;;;;;14.27;4.25;;;;;;;14.43;95.09;99828.72;4976476;28;20042;-68
2024/02/11 07:51:29;;;;;;;15.07;3.25;;;;;;;14.42;95.04;99826.06;4978167;28;20074;-67
2024/02/11 07:54:00;;;;;;;10.88;3.10;;;;;;;13.84;96.30;99738.91;4978314;28;20069;-69
2024/02/11 07:56:26;;;;;;;10.07;3.17;;;;;;;14.16;96.14;99788.59;4986958;28;20038;-69
2024/02/11 07:58:51;;;;;;;10.02;3.17;;;;;;;14.34;95.98;99821.69;4990470;28;20121;-68
2024/02/11 08:01:17;;;;;;;7.50;2.70;;;;;;;13.98;96.97;99770.22;5011771;28;20042;-69
2024/02/11 08:03:43;;;;;;;12.52;3.28;;;;;;;14.21;97.49;99815.47;4992866;28;20042;-69
2024/02/11 08:06:09;;;;;;;12.27;2.55;;;;;;;14.11;98.17;99792.00;4990456;28;20485;-69
2024/02/11 08:08:37;;;;;;;8.40;2.20;;;;;;;14.05;98.35;99778.06;4981921;28;20457;-68
2024/02/11 08:11:06;;;;;;;11.25;3.03;;;;;;;14.23;98.32;99813.78;4990350;28;20402;-69
2024/02/11 08:13:32;;;;;;;11.25;3.67;;;;;;;14.21;94.21;99801.63;4990509;28;20133;-69
2024/02/11 08:16:00;;;;;;;8.07;2.75;;;;;;;14.36;93.14;99782.75;4991249;28;20042;-68
2024/02/11 08:18:25;;;;;;;17.50;2.97;;;;;;;14.41;86.24;99775.88;4989829;28;20522;-68
2024/02/11 08:20:51;;;;;;;9.35;3.05;;;;;;;14.37;88.83;99769.78;4989977;28;20050;-69
2024/02/11 08:23:16;;;;;;;10.25;2.42;;;;;;;14.43;88.44;99773.28;4978777;28;20033;-69
2024/02/11 08:25:43;;;;;;;8.63;2.75;;;;;;;14.40;89.79;99771.53;4990165;28;20065;-68
2024/02/11 08:28:09;;;;;;;8.60;2.42;;;;;;;14.31;93.41;99753.28;4980035;28;20046;-69
2024/02/11 08:30:36;;;;;;;10.23;3.63;;;;;;;14.24;96.04;99761.00;4990148;28;20061;-68
2024/02/11 08:33:01;;;;;;;8.18;3.00;;;;;;;13.94;99.06;99725.19;4990117;28;20066;-67
2024/02/11 08:35:27;;;;;;;10.02;3.00;;;;;;;14.12;100.00;99768.66;4990903;28;20065;-69
2024/02/11 08:37:52;;;;;;;10.98;3.17;;;;;;;13.69;100.00;99701.53;4995946;28;20104;-69
2024/02/11 08:40:18;;;;;;;7.00;2.72;;;;;;;14.09;100.00;99755.63;4989920;28;20030;-69
2024/02/11 08:42:44;;;;;;;8.52;2.80;;;;;;;14.03;100.00;99764.22;4990582;28;20034;-67
2024/02/11 08:45:09;;;;;;;10.98;2.63;;;;;;;14.08;100.00;99751.28;4988608;28;20038;-70
2024/02/11 08:47:35;;;;;;;12.13;3.17;;;;;;;13.97;100.00;99732.13;4993779;28;20027;-69
2024/02/11 08:50:01;;;;;;;9.60;2.42;;;;;;;14.09;99.85;99740.06;4994777;28;20030;-68
2024/02/11 08:52:27;;;;;;;12.18;2.92;;;;;;;14.11;98.25;99719.34;4994939;28;20026;-72
2024/02/11 08:54:52;;;;;;;13.02;2.88;;;;;;;14.19;97.36;99717.66;4994782;28;20046;-69
2024/02/11 08:57:22;;;;;;;12.30;2.72;;;;;;;14.27;96.30;99707.34;4994964;28;20590;-69
2024/02/11 08:59:47;;;;;;;12.80;3.15;;;;;;;13.96;95.54;99614.50;4991981;28;20482;-69
2024/02/11 09:02:17;;;;;;;13.48;2.63;;;;;;;14.45;95.93;99693.69;4993829;28;20122;-70
2024/02/11 09:04:43;;;;;;;16.83;3.53;;;;;;;14.48;97.24;99686.78;4993254;28;20038;-70
2024/02/11 09:07:10;;;;;;;31.98;4.75;;;;;;;14.51;98.02;99706.72;4993616;28;20092;-69
2024/02/11 09:09:36;;;;;;;17.15;3.60;;;;;;;14.50;98.87;99716.22;4985585;28;20061;-73
2024/02/11 09:12:02;;;;;;;10.43;3.33;;;;;;;14.50;99.17;99717.97;4993536;28;20037;-68
2024/02/11 09:14:31;;;;;;;20.75;3.53;;;;;;;14.51;99.59;99736.13;4993555;28;20477;-69
2024/02/11 09:16:59;;;;;;;11.95;3.20;;;;;;;14.53;100.00;99731.84;4993058;28;20509;-69
2024/02/11 09:19:28;;;;;;;15.55;3.53;;;;;;;14.42;99.50;99711.81;4993191;28;20096;-69
2024/02/11 09:21:54;;;;;;;8.00;2.43;;;;;;;14.51;100.00;99725.75;4996071;28;20042;-70
2024/02/11 09:24:22;;;;;;;12.57;3.53;;;;;;;14.49;100.00;99735.28;4994100;28;20332;-70
2024/02/11 09:26:49;;;;;;;9.50;3.42;;;;;;;14.48;100.00;99725.75;4993443;28;20116;-69
2024/02/11 09:29:15;;;;;;;6.30;2.42;;;;;;;14.40;100.00;99728.28;4992965;28;20026;-69
2024/02/11 09:31:40;;;;;;;11.65;4.05;;;;;;;14.29;100.00;99713.44;4993146;28;20444;-69
2024/02/11 09:34:06;;;;;;;11.20;2.85;;;;;;;14.31;100.00;99728.16;4993327;28;20046;-69
2024/02/11 09:36:36;;;;;;;13.40;3.80;;;;;;;14.29;100.00;99731.59;4994781;28;20046;-68
2024/02/11 09:39:03;;;;;;;14.07;3.72;;;;;;;14.17;100.00;99719.41;4993121;28;20042;-69
2024/02/11 09:41:29;;;;;;;12.43;3.28;;;;;;;14.08;100.00;99705.44;4993100;28;20053;-68
2024/02/11 09:44:04;;;;;;;13.50;4.22;;;;;;;14.05;100.00;99708.00;4992976;28;20478;-69
2024/02/11 09:46:37;;;;;;;9.68;2.80;;;;;;;13.96;100.00;99710.50;4993703;28;20028;-68
2024/02/11 09:49:18;;;;;;;9.18;2.88;;;;;;;14.05;100.00;99731.34;4992869;28;20038;-71
2024/02/11 09:51:45;;;;;;;15.80;3.83;;;;;;;13.77;100.00;99683.50;4992937;28;20046;-69
2024/02/11 09:54:13;;;;;;;13.00;3.20;;;;;;;14.20;100.00;99746.22;4992984;28;20030;-69
2024/02/11 09:56:39;;;;;;;10.13;2.83;;;;;;;14.12;100.00;99721.03;4991506;28;20042;-69
2024/02/11 09:59:05;;;;;;;13.45;3.55;;;;;;;14.26;100.00;99742.84;4992795;28;20035;-69
2024/02/11 10:01:32;;;;;;;8.50;3.90;;;;;;;14.03;100.00;99672.50;4992461;28;20124;-67
2024/02/11 10:04:00;;;;;;;12.07;2.88;;;;;;;14.48;100.00;99728.34;5013595;28;20110;-70
2024/02/11 10:06:38;;;;;;;12.10;3.60;;;;;;;14.60;100.00;99735.34;4997460;28;20057;-70
2024/02/11 10:09:05;;;;;;;8.98;2.83;;;;;;;14.72;100.00;99729.44;4997884;28;20074;-70
2024/02/11 10:11:33;;;;;;;15.90;3.72;;;;;;;14.77;100.00;99730.34;4997619;28;20185;-69
2024/02/11 10:13:59;;;;;;;13.90;3.20;;;;;;;14.88;100.00;99735.63;4999229;28;20031;-69
2024/02/11 10:16:35;;;;;;;14.45;3.30;;;;;;;15.07;100.00;99733.16;5000280;28;20120;-70
2024/02/11 10:19:00;;;;;;;8.57;3.15;;;;;;;15.15;100.00;99723.66;4997763;28;20050;-70
2024/02/11 10:21:26;;;;;;;9.40;2.83;;;;;;;15.57;100.00;99732.56;4995028;28;20053;-68
2024/02/11 10:23:54;;;;;;;10.43;3.25;;;;;;;15.75;100.00;99723.09;4999585;28;20038;-69
2024/02/11 10:26:20;;;;;;;12.32;3.30;;;;;;;15.52;100.00;99708.25;4996310;28;20056;-69
2024/02/11 10:28:46;;;;;;;16.10;3.53;;;;;;;15.65;100.00;99733.47;4980924;28;20042;-70
2024/02/11 10:31:12;;;;;;;9.98;3.20;;;;;;;15.62;100.00;99719.59;5001755;28;20485;-76
2024/02/11 10:33:39;;;;;;;16.10;4.10;;;;;;;15.52;99.54;99724.72;4996349;28;20034;-71
2024/02/11 10:36:06;;;;;;;11.77;3.20;;;;;;;15.51;100.00;99709.13;4995415;28;20042;-69
2024/02/11 10:38:36;;;;;;;12.00;3.88;;;;;;;15.66;99.49;99722.22;4991104;28;20034;-70
2024/02/11 10:41:01;;;;;;;11.80;2.85;;;;;;;16.03;96.85;99715.44;4991937;28;20065;-68
2024/02/11 10:43:28;;;;;;;12.57;3.15;;;;;;;16.27;93.80;99694.59;4991435;28;20426;-68
2024/02/11 10:45:54;;;;;;;9.32;2.40;;;;;;;16.44;92.69;99705.06;4982781;28;20464;-68
2024/02/11 10:48:21;;;;;;;9.23;3.38;;;;;;;16.49;91.95;99679.00;4997362;28;20049;-70
2024/02/11 10:51:00;;;;;;;7.75;3.28;;;;;;;16.71;91.80;99684.19;4991592;28;20176;-69
2024/02/11 10:53:32;;;;;;;11.35;3.17;;;;;;;16.82;92.26;99709.41;4986811;28;20033;-70
2024/02/11 10:55:59;;;;;;;10.60;3.08;;;;;;;16.37;87.28;99632.97;4974680;28;20038;-69
2024/02/11 10:58:29;;;;;;;10.55;3.55;;;;;;;16.66;89.30;99682.47;4991162;28;20666;-69
2024/02/11 11:01:00;;;;;;;11.68;3.92;;;;;;;16.36;89.58;99648.59;4991107;28;20029;-69
2024/02/11 11:03:28;;;;;;;10.43;2.40;;;;;;;16.55;89.44;99684.22;4989521;28;20041;-70
2024/02/11 11:05:57;;;;;;;13.55;3.72;;;;;;;16.37;89.53;99612.13;4990943;28;20026;-72
2024/02/11 11:08:23;;;;;;;14.13;2.65;;;;;;;16.76;89.60;99661.59;4990810;28;20457;-69
2024/02/11 11:10:49;;;;;;;12.10;3.45;;;;;;;16.83;89.67;99684.19;4990969;28;20038;-70
2024/02/11 11:13:23;;;;;;;16.00;3.75;;;;;;;16.74;90.51;99689.44;4991040;28;20026;-69
2024/02/11 11:15:50;;;;;;;16.38;3.00;;;;;;;16.60;91.49;99703.31;4990593;28;20041;-67
2024/02/11 11:18:20;;;;;;;11.43;2.97;;;;;;;16.53;91.72;99698.97;4990735;28;20032;-72
2024/02/11 11:20:52;;;;;;;11.32;3.03;;;;;;;16.52;93.83;99697.22;4990295;28;20084;-70
2024/02/11 11:23:18;;;;;;;12.55;3.25;;;;;;;16.53;92.74;99708.53;4990846;28;20033;-68
2024/02/11 11:25:43;;;;;;;9.93;3.08;;;;;;;16.19;93.25;99639.06;4990741;28;20034;-72